Airfield :
LOGIN :

Register | Disclaimer

   EN    FR    IT 

 










Legend :    VFR   Marginal VFR   IFR   Intensive IFR   Very Intensive IFR
Visi :
Ceiling :
>= 8 km
>= 3000ft
5 to 8 km
1000 to 3000 ft
1500m to 5 km
500 to 1000 ft
800 to 1500m
200 to 500 ft
< 800m
< 200 ft
Symbols :   Thunderstorms  Fog  Heavy snow  Heavy precipitations  Wind > 20 kt
SIGMETs :     Misc.  Thunderstorms  Icing  Turbulence  Mountain Waves  Volcanic Ashes






- Airport Elevation : 16 ft
- IATA code : SDR


LEXJ - Santander Cantabria

CURRENT METAR :
  • 131000Z 29033G46KT 9999 SCT034 17/13 Q1010

EXPIRED METARs :
  • 130930Z 29038G52KT 260V320 9999 SCT034 16/13 Q1009
  • 130900Z 29032G46KT 260V320 9999 SCT034 BKN070 16/12 Q1009
  • 130830Z 29031G43KT 260V320 9999 SCT030 BKN060 16/13 Q1008
  • 130800Z 29036G53KT 9999 SCT035 BKN060 16/13 Q1008
  • 130730Z 29034G49KT 250V310 9999 FEW022 SCT044 BKN060 15/13 Q1008

TAF TAF LEXJ
Valid from the 13 at 09:00 until the 14 at 09:00 UTC


130800Z 1309/1409 28020KT 9000 SCT010 BKN020 TX17/1314Z TN10/1403Z
TEMPO 1309/1316 27022G35KT
TEMPO 1309/1314 28030G45KT
BECMG 1317/1320 22012KT



MET'MAP, your aeronautical weather chart ! - Copyright ORBIFLY December 2007 - Disclaimer

ORBIFLY MET'MAP TEAM :

Programming & Development : Alexandra Zaïnal
Concept & original design : Baudouin d'Aumeries
Assistance for programming : Marc-Olivier Méhu
Technical & hardware support : Manuel Goepfert

Contact : metmap@orbifly.com




SOURCES & CREDITS :

   NOAA